SVA1125 OPKC-OEDF
Flight info
| Callsign | SVA1125 |
|---|---|
| Flight time | 2h 54m |
| Altitude | 40000 |
| Route | MELOM A454 VUSET DCT MCT DCT IVAKU DCT LAKLU DCT PUTSO DCT GENIR DCT MIDGU DCT SITUK DCT NAGUB DCT RESAL DCT KSA/N0470F390 DCT ORNIP DCT ORLOK DCT MUSRI DCT KASOM DCT UMENA |
| Aircraft | A333/H-SDE3GHIJ2J3J5M1RVWXY/LB2D1 |
Departure
| Time | 2026-05-08 11:37 |
|---|---|
| Airport | Jinnah International Airport (OPKC) |
Arrival
| Time | 2026-05-08 14:31 |
|---|---|
| Airport | King Fahd International Airport (OEDF) |
| Time | Latitude | Longitude | Altitude | Speed | Heading |
|---|---|---|---|---|---|
| 2026-05-08 11:15 | 24.90331 | 67.16972 | 104 ft | 0 kts | 204° |
| 2026-05-08 11:27 | 24.90342 | 67.16978 | 104 ft | 2 kts | 204° |
| 2026-05-08 11:27 | 24.90357 | 67.16985 | 102 ft | 2 kts | 204° |
| 2026-05-08 11:27 | 24.90372 | 67.16992 | 102 ft | 2 kts | 204° |
| 2026-05-08 11:27 | 24.90386 | 67.16999 | 103 ft | 2 kts | 204° |
| 2026-05-08 11:28 | 24.90401 | 67.17006 | 103 ft | 2 kts | 204° |
| 2026-05-08 11:28 | 24.90415 | 67.17013 | 103 ft | 2 kts | 200° |
| 2026-05-08 11:28 | 24.90426 | 67.17016 | 103 ft | 2 kts | 172° |
| 2026-05-08 11:28 | 24.90432 | 67.17017 | 103 ft | 1 kts | 144° |
| 2026-05-08 11:29 | 24.90436 | 67.17015 | 102 ft | 1 kts | 115° |
| 2026-05-08 11:29 | 24.90439 | 67.17012 | 102 ft | 1 kts | 86° |
| 2026-05-08 11:29 | 24.90437 | 67.16999 | 102 ft | 3 kts | 75° |
| 2026-05-08 11:29 | 24.90432 | 67.16977 | 103 ft | 3 kts | 75° |
| 2026-05-08 11:30 | 24.90430 | 67.16970 | 103 ft | 0 kts | 75° |
| 2026-05-08 11:31 | 24.90432 | 67.16979 | 103 ft | 2 kts | 75° |
| 2026-05-08 11:31 | 24.90439 | 67.17001 | 102 ft | 4 kts | 66° |
| 2026-05-08 11:32 | 24.90459 | 67.17028 | 103 ft | 5 kts | 43° |
| 2026-05-08 11:32 | 24.90493 | 67.17037 | 105 ft | 6 kts | 358° |
| 2026-05-08 11:32 | 24.90535 | 67.17032 | 105 ft | 6 kts | 5° |
| 2026-05-08 11:32 | 24.90566 | 67.17060 | 106 ft | 6 kts | 59° |
| 2026-05-08 11:33 | 24.90580 | 67.17109 | 106 ft | 7 kts | 73° |
| 2026-05-08 11:33 | 24.90597 | 67.17169 | 106 ft | 9 kts | 73° |
| 2026-05-08 11:33 | 24.90615 | 67.17241 | 106 ft | 11 kts | 75° |
| 2026-05-08 11:33 | 24.90637 | 67.17327 | 106 ft | 13 kts | 74° |
| 2026-05-08 11:34 | 24.90680 | 67.17415 | 106 ft | 14 kts | 45° |
| 2026-05-08 11:34 | 24.90738 | 67.17457 | 107 ft | 8 kts | 30° |
| 2026-05-08 11:34 | 24.90788 | 67.17486 | 108 ft | 8 kts | 20° |
| 2026-05-08 11:34 | 24.90836 | 67.17482 | 109 ft | 6 kts | 335° |
| 2026-05-08 11:35 | 24.90859 | 67.17447 | 109 ft | 6 kts | 285° |
| 2026-05-08 11:35 | 24.90856 | 67.17405 | 108 ft | 4 kts | 255° |
| 2026-05-08 11:35 | 24.90855 | 67.17402 | 108 ft | 0 kts | 254° |
| 2026-05-08 11:35 | 24.90854 | 67.17396 | 108 ft | 5 kts | 254° |
| 2026-05-08 11:36 | 24.90809 | 67.17220 | 110 ft | 52 kts | 255° |
| 2026-05-08 11:36 | 24.90655 | 67.16612 | 108 ft | 111 kts | 254° |
| 2026-05-08 11:36 | 24.90402 | 67.15609 | 108 ft | 160 kts | 254° |
| 2026-05-08 11:36 | 24.90086 | 67.14333 | 659 ft | 168 kts | 250° |
| 2026-05-08 11:37 | 24.89768 | 67.13073 | 1441 ft | 170 kts | 244° |
| 2026-05-08 11:37 | 24.89032 | 67.12044 | 2080 ft | 181 kts | 223° |
| 2026-05-08 11:37 | 24.88092 | 67.11014 | 2421 ft | 200 kts | 224° |
| 2026-05-08 11:37 | 24.87035 | 67.09889 | 2679 ft | 220 kts | 224° |
| 2026-05-08 11:38 | 24.85916 | 67.08668 | 3064 ft | 234 kts | 225° |
| 2026-05-08 11:38 | 24.84743 | 67.07360 | 3394 ft | 244 kts | 226° |
| 2026-05-08 11:38 | 24.83543 | 67.06003 | 3786 ft | 250 kts | 226° |
| 2026-05-08 11:38 | 24.82337 | 67.04633 | 4227 ft | 256 kts | 226° |
| 2026-05-08 11:39 | 24.81084 | 67.03206 | 4736 ft | 262 kts | 226° |
| 2026-05-08 11:39 | 24.79817 | 67.01760 | 5314 ft | 264 kts | 226° |
| 2026-05-08 11:39 | 24.78552 | 67.00290 | 5918 ft | 264 kts | 231° |
| 2026-05-08 11:39 | 24.77776 | 66.98483 | 6381 ft | 267 kts | 263° |
| 2026-05-08 11:40 | 24.77872 | 66.96401 | 6673 ft | 279 kts | 281° |
| 2026-05-08 11:40 | 24.78227 | 66.94274 | 7121 ft | 284 kts | 281° |
| 2026-05-08 11:40 | 24.78566 | 66.92118 | 7651 ft | 287 kts | 280° |
| 2026-05-08 11:40 | 24.78867 | 66.89929 | 8199 ft | 290 kts | 279° |
| 2026-05-08 11:41 | 24.79136 | 66.87747 | 8750 ft | 293 kts | 278° |
| 2026-05-08 11:41 | 24.79394 | 66.85511 | 9345 ft | 295 kts | 279° |
| 2026-05-08 11:41 | 24.79645 | 66.83257 | 9911 ft | 298 kts | 278° |
| 2026-05-08 11:41 | 24.80075 | 66.80975 | 10165 ft | 311 kts | 291° |
| 2026-05-08 11:42 | 24.81145 | 66.78857 | 10323 ft | 323 kts | 311° |
| 2026-05-08 11:42 | 24.82726 | 66.77022 | 10523 ft | 337 kts | 317° |
| 2026-05-08 11:42 | 24.84463 | 66.75215 | 10680 ft | 350 kts | 318° |
| 2026-05-08 11:42 | 24.86250 | 66.73370 | 10864 ft | 362 kts | 318° |
| 2026-05-08 11:43 | 24.88104 | 66.71442 | 11167 ft | 369 kts | 318° |
| 2026-05-08 11:43 | 24.89974 | 66.69484 | 11594 ft | 372 kts | 318° |
| 2026-05-08 11:43 | 24.91855 | 66.67506 | 12051 ft | 375 kts | 319° |
| 2026-05-08 11:43 | 24.93746 | 66.65513 | 12544 ft | 377 kts | 318° |
| 2026-05-08 11:44 | 24.95643 | 66.63512 | 12999 ft | 379 kts | 319° |
| 2026-05-08 11:44 | 24.96906 | 66.62179 | 13316 ft | 381 kts | 319° |
| 2026-05-08 11:44 | 24.98826 | 66.60151 | 13734 ft | 384 kts | 319° |
| 2026-05-08 11:44 | 25.00761 | 66.58105 | 14139 ft | 386 kts | 319° |
| 2026-05-08 11:45 | 25.03347 | 66.55322 | 14636 ft | 391 kts | 315° |
| 2026-05-08 11:45 | 25.04516 | 66.53805 | 14886 ft | 395 kts | 309° |
| 2026-05-08 11:45 | 25.05958 | 66.51207 | 15286 ft | 400 kts | 297° |
| 2026-05-08 11:45 | 25.06952 | 66.48325 | 15685 ft | 404 kts | 290° |
| 2026-05-08 11:46 | 25.07732 | 66.45336 | 16061 ft | 407 kts | 287° |
| 2026-05-08 11:46 | 25.08408 | 66.42300 | 16458 ft | 409 kts | 285° |
| 2026-05-08 11:46 | 25.09047 | 66.39225 | 16838 ft | 412 kts | 285° |
| 2026-05-08 11:46 | 25.09681 | 66.36132 | 17207 ft | 414 kts | 285° |
| 2026-05-08 11:47 | 25.10327 | 66.33029 | 17572 ft | 416 kts | 285° |
| 2026-05-08 11:47 | 25.10990 | 66.29911 | 17932 ft | 418 kts | 285° |
| 2026-05-08 11:47 | 25.11668 | 66.26782 | 18244 ft | 420 kts | 285° |
| 2026-05-08 11:47 | 25.12346 | 66.23688 | 18548 ft | 421 kts | 285° |
| 2026-05-08 11:48 | 25.13038 | 66.20543 | 18846 ft | 423 kts | 286° |
| 2026-05-08 11:48 | 25.13736 | 66.17378 | 19161 ft | 424 kts | 285° |
| 2026-05-08 11:48 | 25.14433 | 66.14218 | 19473 ft | 425 kts | 285° |
| 2026-05-08 11:48 | 25.15133 | 66.11037 | 19794 ft | 425 kts | 285° |
| 2026-05-08 11:49 | 25.15828 | 66.07869 | 20118 ft | 426 kts | 285° |
| 2026-05-08 11:49 | 25.16526 | 66.04686 | 20410 ft | 427 kts | 285° |
| 2026-05-08 11:49 | 25.17146 | 66.01517 | 20684 ft | 429 kts | 281° |
| 2026-05-08 11:49 | 25.17321 | 65.98212 | 20971 ft | 434 kts | 270° |
| 2026-05-08 11:50 | 25.17100 | 65.94882 | 21255 ft | 436 kts | 266° |
| 2026-05-08 11:50 | 25.16714 | 65.91559 | 21514 ft | 438 kts | 264° |
| 2026-05-08 11:50 | 25.16228 | 65.88223 | 21750 ft | 440 kts | 262° |
| 2026-05-08 11:50 | 25.15697 | 65.84891 | 22015 ft | 442 kts | 262° |
| 2026-05-08 11:51 | 25.15154 | 65.81550 | 22289 ft | 443 kts | 262° |
| 2026-05-08 11:51 | 25.14612 | 65.78189 | 22566 ft | 444 kts | 262° |
| 2026-05-08 11:51 | 25.14080 | 65.74827 | 22817 ft | 445 kts | 262° |
| 2026-05-08 11:51 | 25.13555 | 65.71455 | 23083 ft | 446 kts | 263° |
| 2026-05-08 11:52 | 25.13034 | 65.68070 | 23331 ft | 447 kts | 263° |
| 2026-05-08 11:52 | 25.12516 | 65.64681 | 23549 ft | 448 kts | 263° |
| 2026-05-08 11:52 | 25.11997 | 65.61279 | 23765 ft | 449 kts | 263° |
| 2026-05-08 11:52 | 25.11477 | 65.57872 | 23955 ft | 451 kts | 263° |
| 2026-05-08 11:53 | 25.10955 | 65.54457 | 24168 ft | 452 kts | 263° |
| 2026-05-08 11:53 | 25.10428 | 65.51026 | 24391 ft | 453 kts | 263° |
| 2026-05-08 11:53 | 25.09901 | 65.47596 | 24610 ft | 454 kts | 263° |
| 2026-05-08 11:53 | 25.09377 | 65.44202 | 24833 ft | 455 kts | 263° |
| 2026-05-08 11:54 | 25.08845 | 65.40752 | 25039 ft | 456 kts | 263° |
| 2026-05-08 11:54 | 25.08310 | 65.37296 | 25264 ft | 457 kts | 263° |
| 2026-05-08 11:54 | 25.07772 | 65.33826 | 25490 ft | 458 kts | 263° |
| 2026-05-08 11:54 | 25.07234 | 65.30357 | 25699 ft | 459 kts | 263° |
| 2026-05-08 11:55 | 25.06695 | 65.26888 | 25889 ft | 460 kts | 263° |
| 2026-05-08 11:55 | 25.06160 | 65.23448 | 26092 ft | 461 kts | 263° |
| 2026-05-08 11:55 | 25.05609 | 65.19914 | 26306 ft | 462 kts | 263° |
| 2026-05-08 11:55 | 25.05070 | 65.16461 | 26526 ft | 463 kts | 263° |
| 2026-05-08 11:56 | 25.04521 | 65.12953 | 26732 ft | 464 kts | 263° |
| 2026-05-08 11:56 | 25.03970 | 65.09435 | 26940 ft | 465 kts | 263° |
| 2026-05-08 11:56 | 25.03419 | 65.05919 | 27144 ft | 466 kts | 263° |
| 2026-05-08 11:56 | 25.02862 | 65.02377 | 27348 ft | 467 kts | 263° |
| 2026-05-08 11:57 | 25.02312 | 64.98881 | 27550 ft | 468 kts | 263° |
| 2026-05-08 11:57 | 25.01754 | 64.95337 | 27736 ft | 469 kts | 263° |
| 2026-05-08 11:57 | 25.01193 | 64.91786 | 27923 ft | 471 kts | 263° |
| 2026-05-08 11:57 | 25.00631 | 64.88229 | 28126 ft | 472 kts | 263° |
| 2026-05-08 11:58 | 25.00066 | 64.84661 | 28313 ft | 473 kts | 263° |
| 2026-05-08 11:58 | 24.99499 | 64.81088 | 28516 ft | 474 kts | 263° |
| 2026-05-08 11:58 | 24.98930 | 64.77507 | 28693 ft | 475 kts | 263° |
| 2026-05-08 11:59 | 24.97786 | 64.70324 | 29042 ft | 477 kts | 263° |
| 2026-05-08 11:59 | 24.97211 | 64.66727 | 29205 ft | 478 kts | 263° |
| 2026-05-08 11:59 | 24.96634 | 64.63117 | 29370 ft | 478 kts | 263° |
| 2026-05-08 11:59 | 24.96055 | 64.59501 | 29519 ft | 479 kts | 263° |
| 2026-05-08 12:00 | 24.95474 | 64.55877 | 29673 ft | 480 kts | 263° |
| 2026-05-08 12:00 | 24.94891 | 64.52249 | 29861 ft | 480 kts | 263° |
| 2026-05-08 12:00 | 24.94307 | 64.48628 | 30060 ft | 479 kts | 263° |
| 2026-05-08 12:00 | 24.93723 | 64.45008 | 30266 ft | 478 kts | 263° |
| 2026-05-08 12:01 | 24.93141 | 64.41404 | 30472 ft | 477 kts | 263° |
| 2026-05-08 12:01 | 24.92558 | 64.37803 | 30676 ft | 477 kts | 263° |
| 2026-05-08 12:01 | 24.91985 | 64.34261 | 30878 ft | 476 kts | 262° |
| 2026-05-08 12:01 | 24.91403 | 64.30673 | 31086 ft | 475 kts | 262° |
| 2026-05-08 12:02 | 24.90821 | 64.27090 | 31320 ft | 475 kts | 262° |
| 2026-05-08 12:02 | 24.90238 | 64.23509 | 31577 ft | 474 kts | 262° |
| 2026-05-08 12:02 | 24.89656 | 64.19938 | 31839 ft | 473 kts | 262° |
| 2026-05-08 12:02 | 24.89075 | 64.16380 | 32128 ft | 472 kts | 262° |
| 2026-05-08 12:03 | 24.88494 | 64.12825 | 32445 ft | 470 kts | 262° |
| 2026-05-08 12:03 | 24.87914 | 64.09283 | 32775 ft | 469 kts | 262° |
| 2026-05-08 12:03 | 24.87336 | 64.05758 | 33107 ft | 468 kts | 262° |
| 2026-05-08 12:03 | 24.86757 | 64.02234 | 33425 ft | 467 kts | 262° |
| 2026-05-08 12:04 | 24.86178 | 63.98713 | 33752 ft | 466 kts | 262° |
| 2026-05-08 12:04 | 24.85600 | 63.95201 | 34054 ft | 465 kts | 262° |
| 2026-05-08 12:04 | 24.85021 | 63.91696 | 34355 ft | 464 kts | 262° |
| 2026-05-08 12:04 | 24.84451 | 63.88243 | 34642 ft | 463 kts | 262° |
| 2026-05-08 12:05 | 24.83875 | 63.84761 | 34946 ft | 462 kts | 262° |
| 2026-05-08 12:05 | 24.83298 | 63.81280 | 35238 ft | 461 kts | 261° |
| 2026-05-08 12:05 | 24.82722 | 63.77812 | 35536 ft | 460 kts | 261° |
| 2026-05-08 12:05 | 24.82146 | 63.74343 | 35829 ft | 460 kts | 261° |
| 2026-05-08 12:06 | 24.81570 | 63.70885 | 36103 ft | 459 kts | 261° |
| 2026-05-08 12:06 | 24.80994 | 63.67426 | 36379 ft | 459 kts | 261° |
| 2026-05-08 12:06 | 24.80416 | 63.63964 | 36661 ft | 458 kts | 261° |
| 2026-05-08 12:06 | 24.79841 | 63.60523 | 36943 ft | 457 kts | 261° |
| 2026-05-08 12:07 | 24.79265 | 63.57085 | 37220 ft | 457 kts | 261° |
| 2026-05-08 12:07 | 24.78694 | 63.53681 | 37474 ft | 456 kts | 261° |
| 2026-05-08 12:07 | 24.78118 | 63.50247 | 37748 ft | 455 kts | 261° |
| 2026-05-08 12:07 | 24.77542 | 63.46824 | 38013 ft | 454 kts | 261° |
| 2026-05-08 12:08 | 24.76967 | 63.43409 | 38263 ft | 454 kts | 261° |
| 2026-05-08 12:08 | 24.76390 | 63.39990 | 38454 ft | 454 kts | 260° |
| 2026-05-08 12:08 | 24.75812 | 63.36564 | 38634 ft | 454 kts | 260° |
| 2026-05-08 12:08 | 24.75235 | 63.33151 | 38833 ft | 453 kts | 260° |
| 2026-05-08 12:09 | 24.74665 | 63.29785 | 39033 ft | 453 kts | 260° |
| 2026-05-08 12:09 | 24.74087 | 63.26382 | 39230 ft | 452 kts | 260° |
| 2026-05-08 12:09 | 24.73510 | 63.22983 | 39422 ft | 451 kts | 260° |
| 2026-05-08 12:09 | 24.72933 | 63.19592 | 39607 ft | 451 kts | 260° |
| 2026-05-08 12:10 | 24.72355 | 63.16196 | 39708 ft | 452 kts | 260° |
| 2026-05-08 12:10 | 24.71775 | 63.12794 | 39704 ft | 453 kts | 260° |
| 2026-05-08 12:10 | 24.70610 | 63.05979 | 39705 ft | 453 kts | 260° |
| 2026-05-08 12:11 | 24.69441 | 62.99161 | 39706 ft | 453 kts | 260° |
| 2026-05-08 12:11 | 24.68269 | 62.92342 | 39709 ft | 453 kts | 260° |
| 2026-05-08 12:12 | 24.67101 | 62.85568 | 39709 ft | 453 kts | 260° |
| 2026-05-08 12:12 | 24.65923 | 62.78755 | 39707 ft | 454 kts | 260° |
| 2026-05-08 12:13 | 24.64741 | 62.71936 | 39702 ft | 454 kts | 260° |
| 2026-05-08 12:13 | 24.63556 | 62.65119 | 39706 ft | 454 kts | 259° |
| 2026-05-08 12:14 | 24.62367 | 62.58297 | 39702 ft | 454 kts | 259° |
| 2026-05-08 12:14 | 24.61176 | 62.51483 | 39701 ft | 454 kts | 259° |
| 2026-05-08 12:15 | 24.59979 | 62.44656 | 39705 ft | 455 kts | 259° |
| 2026-05-08 12:15 | 24.58787 | 62.37875 | 39702 ft | 455 kts | 259° |
| 2026-05-08 12:16 | 24.57583 | 62.31047 | 39705 ft | 455 kts | 259° |
| 2026-05-08 12:16 | 24.56373 | 62.24200 | 39705 ft | 455 kts | 259° |
| 2026-05-08 12:17 | 24.55163 | 62.17369 | 39705 ft | 456 kts | 259° |
| 2026-05-08 12:17 | 24.53949 | 62.10539 | 39701 ft | 456 kts | 259° |
| 2026-05-08 12:18 | 24.52738 | 62.03746 | 39703 ft | 456 kts | 259° |
| 2026-05-08 12:18 | 24.51517 | 61.96914 | 39705 ft | 456 kts | 259° |
| 2026-05-08 12:19 | 24.50292 | 61.90077 | 39698 ft | 456 kts | 259° |
| 2026-05-08 12:19 | 24.49062 | 61.83230 | 39700 ft | 457 kts | 259° |
| 2026-05-08 12:20 | 24.47830 | 61.76391 | 39700 ft | 457 kts | 259° |
| 2026-05-08 12:20 | 24.46595 | 61.69552 | 39705 ft | 457 kts | 259° |
| 2026-05-08 12:21 | 24.45357 | 61.62716 | 39702 ft | 457 kts | 259° |
| 2026-05-08 12:21 | 24.44120 | 61.55901 | 39695 ft | 457 kts | 259° |
| 2026-05-08 12:22 | 24.42875 | 61.49064 | 39694 ft | 457 kts | 259° |
| 2026-05-08 12:22 | 24.41627 | 61.42230 | 39696 ft | 457 kts | 259° |
| 2026-05-08 12:23 | 24.40376 | 61.35394 | 39696 ft | 457 kts | 259° |
| 2026-05-08 12:23 | 24.39047 | 61.28567 | 39697 ft | 457 kts | 257° |
| 2026-05-08 12:24 | 24.37636 | 61.21819 | 39692 ft | 457 kts | 257° |
| 2026-05-08 12:24 | 24.36203 | 61.15026 | 39699 ft | 457 kts | 257° |
| 2026-05-08 12:25 | 24.34778 | 61.08237 | 39700 ft | 457 kts | 257° |
| 2026-05-08 12:25 | 24.33357 | 61.01440 | 39694 ft | 457 kts | 257° |
| 2026-05-08 12:26 | 24.31934 | 60.94646 | 39699 ft | 457 kts | 257° |
| 2026-05-08 12:26 | 24.30516 | 60.87893 | 39701 ft | 457 kts | 257° |
| 2026-05-08 12:27 | 24.29084 | 60.81095 | 39698 ft | 457 kts | 257° |
| 2026-05-08 12:27 | 24.27651 | 60.74306 | 39702 ft | 457 kts | 257° |
| 2026-05-08 12:28 | 24.26216 | 60.67517 | 39703 ft | 457 kts | 257° |
| 2026-05-08 12:28 | 24.24778 | 60.60736 | 39701 ft | 457 kts | 257° |
| 2026-05-08 12:29 | 24.23344 | 60.53993 | 39705 ft | 457 kts | 257° |
| 2026-05-08 12:29 | 24.21899 | 60.47206 | 39702 ft | 457 kts | 257° |
| 2026-05-08 12:30 | 24.20450 | 60.40420 | 39707 ft | 457 kts | 257° |
| 2026-05-08 12:30 | 24.19008 | 60.33679 | 39703 ft | 457 kts | 257° |
| 2026-05-08 12:31 | 24.17556 | 60.26914 | 39701 ft | 457 kts | 257° |
| 2026-05-08 12:31 | 24.16100 | 60.20138 | 39700 ft | 457 kts | 257° |
| 2026-05-08 12:32 | 24.14879 | 60.14472 | 39707 ft | 457 kts | 256° |
| 2026-05-08 12:32 | 24.13417 | 60.07696 | 39694 ft | 457 kts | 256° |
| 2026-05-08 12:33 | 24.11962 | 60.00973 | 39696 ft | 457 kts | 256° |
| 2026-05-08 12:33 | 24.10494 | 59.94204 | 39694 ft | 457 kts | 256° |
| 2026-05-08 12:34 | 24.09023 | 59.87433 | 39702 ft | 457 kts | 256° |
| 2026-05-08 12:34 | 24.07548 | 59.80665 | 39694 ft | 457 kts | 256° |
| 2026-05-08 12:35 | 24.06080 | 59.73942 | 39698 ft | 457 kts | 256° |
| 2026-05-08 12:35 | 24.04600 | 59.67179 | 39699 ft | 457 kts | 256° |
| 2026-05-08 12:36 | 24.03118 | 59.60418 | 39699 ft | 457 kts | 256° |
| 2026-05-08 12:36 | 24.01632 | 59.53658 | 39705 ft | 456 kts | 256° |
| 2026-05-08 12:37 | 24.00145 | 59.46909 | 39699 ft | 456 kts | 256° |
| 2026-05-08 12:37 | 23.98656 | 59.40160 | 39707 ft | 456 kts | 256° |
| 2026-05-08 12:38 | 23.97161 | 59.33403 | 39701 ft | 456 kts | 256° |
| 2026-05-08 12:38 | 23.95674 | 59.26700 | 39702 ft | 456 kts | 256° |
| 2026-05-08 12:39 | 23.94177 | 59.19963 | 39704 ft | 456 kts | 256° |
| 2026-05-08 12:39 | 23.92508 | 59.13275 | 39705 ft | 455 kts | 249° |
| 2026-05-08 12:40 | 23.90198 | 59.06815 | 39704 ft | 455 kts | 248° |
| 2026-05-08 12:40 | 23.87763 | 59.00421 | 39706 ft | 455 kts | 247° |
| 2026-05-08 12:41 | 23.85302 | 58.94033 | 39708 ft | 455 kts | 247° |
| 2026-05-08 12:41 | 23.82870 | 58.87701 | 39708 ft | 455 kts | 247° |
| 2026-05-08 12:42 | 23.80426 | 58.81322 | 39706 ft | 455 kts | 247° |
| 2026-05-08 12:42 | 23.77980 | 58.74940 | 39707 ft | 455 kts | 247° |
| 2026-05-08 12:43 | 23.75535 | 58.68569 | 39705 ft | 455 kts | 247° |
| 2026-05-08 12:43 | 23.73082 | 58.62187 | 39709 ft | 455 kts | 247° |
| 2026-05-08 12:44 | 23.70643 | 58.55853 | 39711 ft | 455 kts | 247° |
| 2026-05-08 12:44 | 23.68186 | 58.49479 | 39717 ft | 455 kts | 247° |
| 2026-05-08 12:45 | 23.65728 | 58.43115 | 39718 ft | 455 kts | 246° |
| 2026-05-08 12:45 | 23.63271 | 58.36762 | 39714 ft | 454 kts | 246° |
| 2026-05-08 12:46 | 23.60812 | 58.30410 | 39719 ft | 454 kts | 246° |
| 2026-05-08 12:46 | 23.58810 | 58.23885 | 39711 ft | 454 kts | 256° |
| 2026-05-08 12:47 | 23.57503 | 58.17184 | 39726 ft | 455 kts | 258° |
| 2026-05-08 12:47 | 23.56317 | 58.10402 | 39731 ft | 455 kts | 258° |
| 2026-05-08 12:48 | 23.55139 | 58.03609 | 39726 ft | 455 kts | 258° |
| 2026-05-08 12:48 | 23.53945 | 57.96831 | 39737 ft | 455 kts | 258° |
| 2026-05-08 12:49 | 23.52740 | 57.90061 | 39762 ft | 455 kts | 258° |
| 2026-05-08 12:49 | 23.51537 | 57.83336 | 39756 ft | 455 kts | 258° |
| 2026-05-08 12:50 | 23.50321 | 57.76554 | 39777 ft | 455 kts | 258° |
| 2026-05-08 12:50 | 23.49106 | 57.69792 | 39786 ft | 455 kts | 258° |
| 2026-05-08 12:51 | 23.47279 | 57.59640 | 39799 ft | 455 kts | 258° |
| 2026-05-08 12:52 | 23.46058 | 57.52877 | 39812 ft | 455 kts | 258° |
| 2026-05-08 12:52 | 23.44222 | 57.42741 | 39824 ft | 455 kts | 257° |
| 2026-05-08 12:53 | 23.43003 | 57.36030 | 39846 ft | 454 kts | 258° |
| 2026-05-08 12:53 | 23.41771 | 57.29267 | 39819 ft | 455 kts | 257° |
| 2026-05-08 12:54 | 23.40537 | 57.22512 | 39831 ft | 454 kts | 257° |
| 2026-05-08 12:54 | 23.39301 | 57.15756 | 39827 ft | 455 kts | 257° |
| 2026-05-08 12:55 | 23.38061 | 57.09004 | 39834 ft | 454 kts | 257° |
| 2026-05-08 12:55 | 23.36824 | 57.02283 | 39839 ft | 455 kts | 257° |
| 2026-05-08 12:56 | 23.35577 | 56.95531 | 39845 ft | 455 kts | 257° |
| 2026-05-08 12:56 | 23.33931 | 56.88905 | 39845 ft | 453 kts | 246° |
| 2026-05-08 12:57 | 23.31007 | 56.82842 | 39836 ft | 452 kts | 239° |
| 2026-05-08 12:57 | 23.27772 | 56.77009 | 39833 ft | 452 kts | 238° |
| 2026-05-08 12:58 | 23.24465 | 56.71188 | 39826 ft | 452 kts | 238° |
| 2026-05-08 12:58 | 23.21168 | 56.65353 | 39822 ft | 452 kts | 238° |
| 2026-05-08 12:59 | 23.17870 | 56.59516 | 39811 ft | 453 kts | 238° |
| 2026-05-08 12:59 | 23.14481 | 56.53729 | 39815 ft | 453 kts | 237° |
| 2026-05-08 13:00 | 23.11071 | 56.47980 | 39801 ft | 453 kts | 237° |
| 2026-05-08 13:00 | 23.07665 | 56.42234 | 39801 ft | 452 kts | 237° |
| 2026-05-08 13:01 | 23.04260 | 56.36479 | 39796 ft | 453 kts | 237° |
| 2026-05-08 13:01 | 23.00854 | 56.30723 | 39795 ft | 453 kts | 237° |
| 2026-05-08 13:02 | 22.97470 | 56.25009 | 39786 ft | 452 kts | 237° |
| 2026-05-08 13:02 | 22.96891 | 56.24033 | 39790 ft | 452 kts | 237° |
| 2026-05-08 13:03 | 22.90937 | 56.14000 | 39783 ft | 452 kts | 237° |
| 2026-05-08 13:03 | 22.87531 | 56.08270 | 39781 ft | 452 kts | 237° |
| 2026-05-08 13:04 | 22.84119 | 56.02535 | 39782 ft | 452 kts | 237° |
| 2026-05-08 13:04 | 22.80730 | 55.96846 | 39769 ft | 452 kts | 237° |
| 2026-05-08 13:05 | 22.77316 | 55.91120 | 39774 ft | 452 kts | 237° |
| 2026-05-08 13:05 | 22.73904 | 55.85405 | 39764 ft | 452 kts | 237° |
| 2026-05-08 13:06 | 22.70485 | 55.79684 | 39771 ft | 452 kts | 237° |
| 2026-05-08 13:06 | 22.67064 | 55.73965 | 39762 ft | 451 kts | 237° |
| 2026-05-08 13:07 | 22.63645 | 55.68257 | 39761 ft | 451 kts | 237° |
| 2026-05-08 13:07 | 22.60245 | 55.62586 | 39768 ft | 451 kts | 237° |
| 2026-05-08 13:08 | 22.56826 | 55.56892 | 39758 ft | 451 kts | 237° |
| 2026-05-08 13:08 | 22.53395 | 55.51182 | 39768 ft | 451 kts | 236° |
| 2026-05-08 13:09 | 22.49996 | 55.45479 | 39767 ft | 451 kts | 239° |
| 2026-05-08 13:09 | 22.47576 | 55.39237 | 39766 ft | 452 kts | 255° |
| 2026-05-08 13:10 | 22.47074 | 55.32459 | 39762 ft | 456 kts | 274° |
| 2026-05-08 13:10 | 22.48349 | 55.25753 | 39766 ft | 459 kts | 280° |
| 2026-05-08 13:11 | 22.49512 | 55.18981 | 39768 ft | 457 kts | 274° |
| 2026-05-08 13:11 | 22.50228 | 55.12145 | 39753 ft | 457 kts | 274° |
| 2026-05-08 13:12 | 22.50863 | 55.05293 | 39755 ft | 457 kts | 273° |
| 2026-05-08 13:12 | 22.51494 | 54.98425 | 39752 ft | 457 kts | 273° |
| 2026-05-08 13:13 | 22.52128 | 54.91626 | 39742 ft | 457 kts | 273° |
| 2026-05-08 13:13 | 22.52770 | 54.84778 | 39744 ft | 458 kts | 273° |
| 2026-05-08 13:14 | 22.53412 | 54.77919 | 39749 ft | 457 kts | 273° |
| 2026-05-08 13:14 | 22.54049 | 54.71071 | 39751 ft | 457 kts | 273° |
| 2026-05-08 13:15 | 22.54681 | 54.64230 | 39753 ft | 457 kts | 273° |
| 2026-05-08 13:15 | 22.55310 | 54.57393 | 39750 ft | 457 kts | 273° |
| 2026-05-08 13:16 | 22.55934 | 54.50593 | 39752 ft | 457 kts | 273° |
| 2026-05-08 13:16 | 22.56559 | 54.43740 | 39754 ft | 456 kts | 273° |
| 2026-05-08 13:17 | 22.57179 | 54.36909 | 39754 ft | 456 kts | 273° |
| 2026-05-08 13:17 | 22.57796 | 54.30071 | 39753 ft | 457 kts | 273° |
| 2026-05-08 13:18 | 22.58412 | 54.23222 | 39763 ft | 457 kts | 273° |
| 2026-05-08 13:18 | 22.59020 | 54.16429 | 39756 ft | 456 kts | 273° |
| 2026-05-08 13:19 | 22.59629 | 54.09593 | 39758 ft | 456 kts | 272° |
| 2026-05-08 13:19 | 22.60237 | 54.02741 | 39765 ft | 457 kts | 272° |
| 2026-05-08 13:20 | 22.60837 | 53.95939 | 39758 ft | 456 kts | 272° |
| 2026-05-08 13:20 | 22.61437 | 53.89104 | 39760 ft | 456 kts | 272° |
| 2026-05-08 13:21 | 22.62034 | 53.82261 | 39764 ft | 456 kts | 272° |
| 2026-05-08 13:21 | 22.62630 | 53.75406 | 39763 ft | 456 kts | 272° |
| 2026-05-08 13:22 | 22.63222 | 53.68559 | 39762 ft | 456 kts | 272° |
| 2026-05-08 13:22 | 22.63806 | 53.61769 | 39763 ft | 456 kts | 272° |
| 2026-05-08 13:23 | 22.64391 | 53.54934 | 39764 ft | 456 kts | 272° |
| 2026-05-08 13:23 | 22.64974 | 53.48093 | 39765 ft | 456 kts | 272° |
| 2026-05-08 13:24 | 22.65553 | 53.41260 | 39766 ft | 456 kts | 272° |
| 2026-05-08 13:24 | 22.66130 | 53.34416 | 39769 ft | 456 kts | 272° |
| 2026-05-08 13:25 | 22.66704 | 53.27581 | 39765 ft | 456 kts | 272° |
| 2026-05-08 13:25 | 22.67275 | 53.20740 | 39769 ft | 456 kts | 272° |
| 2026-05-08 13:26 | 22.67840 | 53.13934 | 39768 ft | 456 kts | 272° |
| 2026-05-08 13:26 | 22.68405 | 53.07093 | 39768 ft | 456 kts | 272° |
| 2026-05-08 13:27 | 22.68968 | 53.00242 | 39777 ft | 456 kts | 272° |
| 2026-05-08 13:27 | 22.69527 | 52.93399 | 39771 ft | 456 kts | 272° |
| 2026-05-08 13:28 | 22.70083 | 52.86556 | 39774 ft | 456 kts | 272° |
| 2026-05-08 13:28 | 22.70634 | 52.79747 | 39774 ft | 456 kts | 271° |
| 2026-05-08 13:29 | 22.71185 | 52.72898 | 39777 ft | 456 kts | 271° |
| 2026-05-08 13:29 | 22.71732 | 52.66056 | 39780 ft | 455 kts | 271° |
| 2026-05-08 13:30 | 22.72273 | 52.59258 | 39779 ft | 455 kts | 271° |
| 2026-05-08 13:30 | 22.72813 | 52.52431 | 39780 ft | 455 kts | 271° |
| 2026-05-08 13:31 | 22.73351 | 52.45605 | 39780 ft | 455 kts | 271° |
| 2026-05-08 13:31 | 22.73885 | 52.38782 | 39780 ft | 454 kts | 271° |
| 2026-05-08 13:32 | 22.74417 | 52.31954 | 39783 ft | 454 kts | 271° |
| 2026-05-08 13:32 | 22.74945 | 52.25133 | 39780 ft | 454 kts | 271° |
| 2026-05-08 13:33 | 22.75468 | 52.18346 | 39786 ft | 454 kts | 271° |
| 2026-05-08 13:33 | 22.75990 | 52.11532 | 39784 ft | 454 kts | 271° |
| 2026-05-08 13:34 | 22.76509 | 52.04704 | 39782 ft | 454 kts | 271° |
| 2026-05-08 13:34 | 22.77026 | 51.97878 | 39790 ft | 454 kts | 271° |
| 2026-05-08 13:35 | 22.77539 | 51.91063 | 39799 ft | 453 kts | 271° |
| 2026-05-08 13:35 | 22.78045 | 51.84306 | 39788 ft | 452 kts | 271° |
| 2026-05-08 13:36 | 22.78551 | 51.77510 | 39788 ft | 452 kts | 271° |
| 2026-05-08 13:36 | 22.79053 | 51.70724 | 39788 ft | 451 kts | 271° |
| 2026-05-08 13:37 | 22.79552 | 51.63940 | 39791 ft | 451 kts | 271° |
| 2026-05-08 13:37 | 22.80047 | 51.57165 | 39794 ft | 451 kts | 271° |
| 2026-05-08 13:38 | 22.80539 | 51.50392 | 39790 ft | 451 kts | 271° |
| 2026-05-08 13:38 | 22.81025 | 51.43665 | 39791 ft | 450 kts | 271° |
| 2026-05-08 13:39 | 22.81512 | 51.36887 | 39788 ft | 450 kts | 271° |
| 2026-05-08 13:39 | 22.81996 | 51.30111 | 39793 ft | 450 kts | 271° |
| 2026-05-08 13:40 | 22.82396 | 51.24475 | 39793 ft | 451 kts | 270° |
| 2026-05-08 13:40 | 22.82875 | 51.17698 | 39793 ft | 451 kts | 270° |
| 2026-05-08 13:41 | 22.83348 | 51.10955 | 39792 ft | 451 kts | 270° |
| 2026-05-08 13:41 | 22.83821 | 51.04183 | 39796 ft | 451 kts | 270° |
| 2026-05-08 13:42 | 22.84291 | 50.97400 | 39796 ft | 451 kts | 270° |
| 2026-05-08 13:42 | 22.84759 | 50.90615 | 39795 ft | 450 kts | 270° |
| 2026-05-08 13:43 | 22.85223 | 50.83839 | 39799 ft | 450 kts | 270° |
| 2026-05-08 13:43 | 22.85681 | 50.77106 | 39798 ft | 450 kts | 270° |
| 2026-05-08 13:44 | 22.86140 | 50.70329 | 39798 ft | 450 kts | 270° |
| 2026-05-08 13:44 | 22.86595 | 50.63549 | 39802 ft | 450 kts | 270° |
| 2026-05-08 13:45 | 22.87048 | 50.56780 | 39799 ft | 450 kts | 270° |
| 2026-05-08 13:45 | 22.87498 | 50.49995 | 39806 ft | 450 kts | 270° |
| 2026-05-08 13:46 | 22.87942 | 50.43262 | 39798 ft | 449 kts | 270° |
| 2026-05-08 13:46 | 22.88385 | 50.36508 | 39801 ft | 449 kts | 270° |
| 2026-05-08 13:47 | 22.88825 | 50.29748 | 39801 ft | 449 kts | 270° |
| 2026-05-08 13:47 | 22.89261 | 50.22995 | 39804 ft | 449 kts | 270° |
| 2026-05-08 13:48 | 22.89695 | 50.16239 | 39804 ft | 449 kts | 270° |
| 2026-05-08 13:48 | 22.90123 | 50.09526 | 39804 ft | 449 kts | 270° |
| 2026-05-08 13:49 | 22.90552 | 50.02761 | 39807 ft | 449 kts | 270° |
| 2026-05-08 13:49 | 22.90978 | 49.95999 | 39815 ft | 449 kts | 270° |
| 2026-05-08 13:50 | 22.91401 | 49.89246 | 39804 ft | 447 kts | 270° |
| 2026-05-08 13:50 | 22.91816 | 49.82558 | 39805 ft | 447 kts | 270° |
| 2026-05-08 13:51 | 22.92232 | 49.75822 | 39804 ft | 446 kts | 269° |
| 2026-05-08 13:51 | 22.93113 | 49.69149 | 39803 ft | 451 kts | 281° |
| 2026-05-08 13:52 | 22.95687 | 49.62878 | 39809 ft | 463 kts | 298° |
| 2026-05-08 13:52 | 23.00160 | 49.57735 | 39811 ft | 479 kts | 318° |
| 2026-05-08 13:53 | 23.05921 | 49.53963 | 39807 ft | 487 kts | 327° |
| 2026-05-08 13:53 | 23.11988 | 49.50730 | 39806 ft | 489 kts | 329° |
| 2026-05-08 13:54 | 23.18108 | 49.47490 | 39808 ft | 489 kts | 328° |
| 2026-05-08 13:54 | 23.24181 | 49.44171 | 39812 ft | 488 kts | 327° |
| 2026-05-08 13:55 | 23.30238 | 49.40801 | 39822 ft | 488 kts | 327° |
| 2026-05-08 13:56 | 23.39278 | 49.35748 | 39813 ft | 489 kts | 327° |
| 2026-05-08 13:56 | 23.45332 | 49.32364 | 39816 ft | 489 kts | 327° |
| 2026-05-08 13:57 | 23.51383 | 49.28981 | 39825 ft | 488 kts | 327° |
| 2026-05-08 13:57 | 23.57426 | 49.25599 | 39820 ft | 488 kts | 327° |
| 2026-05-08 13:58 | 23.63472 | 49.22211 | 39823 ft | 488 kts | 327° |
| 2026-05-08 13:58 | 23.69479 | 49.18842 | 39830 ft | 488 kts | 327° |
| 2026-05-08 13:59 | 23.75526 | 49.15447 | 39824 ft | 488 kts | 326° |
| 2026-05-08 13:59 | 23.81557 | 49.12057 | 39841 ft | 488 kts | 326° |
| 2026-05-08 14:00 | 23.87598 | 49.08659 | 39827 ft | 488 kts | 326° |
| 2026-05-08 14:00 | 23.93601 | 49.05277 | 39844 ft | 489 kts | 326° |
| 2026-05-08 14:01 | 23.99649 | 49.01867 | 39840 ft | 490 kts | 326° |
| 2026-05-08 14:01 | 24.05712 | 48.98445 | 39843 ft | 489 kts | 326° |
| 2026-05-08 14:02 | 24.11804 | 48.95000 | 39856 ft | 497 kts | 326° |
| 2026-05-08 14:02 | 24.18072 | 48.91625 | 39848 ft | 509 kts | 333° |
| 2026-05-08 14:03 | 24.24894 | 48.89303 | 39854 ft | 514 kts | 338° |
| 2026-05-08 14:03 | 24.31819 | 48.87278 | 39853 ft | 515 kts | 339° |
| 2026-05-08 14:04 | 24.38718 | 48.85316 | 39862 ft | 516 kts | 339° |
| 2026-05-08 14:04 | 24.45672 | 48.83319 | 39856 ft | 516 kts | 339° |
| 2026-05-08 14:05 | 24.52613 | 48.81305 | 39864 ft | 516 kts | 339° |
| 2026-05-08 14:05 | 24.59565 | 48.79279 | 39870 ft | 516 kts | 339° |
| 2026-05-08 14:06 | 24.66503 | 48.77254 | 39870 ft | 516 kts | 339° |
| 2026-05-08 14:06 | 24.73402 | 48.75239 | 39876 ft | 516 kts | 339° |
| 2026-05-08 14:07 | 24.80350 | 48.73209 | 39883 ft | 515 kts | 339° |
| 2026-05-08 14:07 | 24.87303 | 48.71174 | 39893 ft | 515 kts | 339° |
| 2026-05-08 14:08 | 24.94170 | 48.69163 | 39640 ft | 513 kts | 338° |
| 2026-05-08 14:08 | 24.97637 | 48.68146 | 39409 ft | 515 kts | 338° |
| 2026-05-08 14:08 | 25.01105 | 48.67127 | 39193 ft | 516 kts | 338° |
| 2026-05-08 14:08 | 25.04583 | 48.66105 | 38700 ft | 518 kts | 338° |
| 2026-05-08 14:09 | 25.08074 | 48.65079 | 38002 ft | 519 kts | 338° |
| 2026-05-08 14:09 | 25.11567 | 48.64051 | 37232 ft | 521 kts | 338° |
| 2026-05-08 14:09 | 25.15086 | 48.63044 | 36459 ft | 526 kts | 342° |
| 2026-05-08 14:09 | 25.18786 | 48.62703 | 35676 ft | 542 kts | 358° |
| 2026-05-08 14:10 | 25.22565 | 48.63358 | 34729 ft | 557 kts | 13° |
| 2026-05-08 14:10 | 25.26203 | 48.64903 | 33872 ft | 564 kts | 23° |
| 2026-05-08 14:10 | 25.29639 | 48.66906 | 33032 ft | 566 kts | 28° |
| 2026-05-08 14:10 | 25.33017 | 48.69133 | 32222 ft | 566 kts | 30° |
| 2026-05-08 14:11 | 25.36373 | 48.71417 | 31336 ft | 564 kts | 30° |
| 2026-05-08 14:11 | 25.39712 | 48.73666 | 29951 ft | 559 kts | 30° |
| 2026-05-08 14:11 | 25.43059 | 48.75861 | 28186 ft | 559 kts | 29° |
| 2026-05-08 14:11 | 25.46353 | 48.77965 | 27963 ft | 536 kts | 28° |
| 2026-05-08 14:12 | 25.49541 | 48.79972 | 27336 ft | 518 kts | 28° |
| 2026-05-08 14:12 | 25.52628 | 48.81891 | 26633 ft | 499 kts | 28° |
| 2026-05-08 14:12 | 25.55565 | 48.83707 | 25971 ft | 481 kts | 27° |
| 2026-05-08 14:12 | 25.58445 | 48.85485 | 25321 ft | 468 kts | 27° |
| 2026-05-08 14:13 | 25.61290 | 48.87241 | 24675 ft | 470 kts | 27° |
| 2026-05-08 14:13 | 25.64148 | 48.89008 | 24014 ft | 471 kts | 27° |
| 2026-05-08 14:13 | 25.67009 | 48.90780 | 23316 ft | 471 kts | 27° |
| 2026-05-08 14:13 | 25.69869 | 48.92555 | 22570 ft | 469 kts | 28° |
| 2026-05-08 14:14 | 25.72714 | 48.94324 | 21907 ft | 465 kts | 28° |
| 2026-05-08 14:14 | 25.75527 | 48.96075 | 21246 ft | 462 kts | 28° |
| 2026-05-08 14:14 | 25.78328 | 48.97820 | 20584 ft | 458 kts | 28° |
| 2026-05-08 14:14 | 25.81090 | 48.99542 | 19932 ft | 454 kts | 28° |
| 2026-05-08 14:15 | 25.83809 | 49.01238 | 19292 ft | 451 kts | 27° |
| 2026-05-08 14:15 | 25.86536 | 49.02939 | 18668 ft | 447 kts | 27° |
| 2026-05-08 14:15 | 25.89244 | 49.04630 | 17997 ft | 444 kts | 27° |
| 2026-05-08 14:15 | 25.91925 | 49.06304 | 17321 ft | 439 kts | 28° |
| 2026-05-08 14:16 | 25.94576 | 49.07959 | 16714 ft | 433 kts | 28° |
| 2026-05-08 14:16 | 25.97187 | 49.09590 | 16075 ft | 428 kts | 29° |
| 2026-05-08 14:16 | 25.99765 | 49.11202 | 15460 ft | 423 kts | 29° |
| 2026-05-08 14:16 | 26.02325 | 49.12803 | 14852 ft | 418 kts | 29° |
| 2026-05-08 14:17 | 26.04810 | 49.14358 | 14363 ft | 412 kts | 30° |
| 2026-05-08 14:17 | 26.07294 | 49.15914 | 13790 ft | 407 kts | 30° |
| 2026-05-08 14:17 | 26.09754 | 49.17455 | 13139 ft | 404 kts | 30° |
| 2026-05-08 14:17 | 26.12191 | 49.18984 | 12513 ft | 400 kts | 30° |
| 2026-05-08 14:18 | 26.14601 | 49.20512 | 12004 ft | 392 kts | 32° |
| 2026-05-08 14:18 | 26.16716 | 49.22361 | 11475 ft | 384 kts | 48° |
| 2026-05-08 14:18 | 26.18418 | 49.24581 | 11179 ft | 369 kts | 53° |
| 2026-05-08 14:18 | 26.19907 | 49.26835 | 11006 ft | 353 kts | 57° |
| 2026-05-08 14:19 | 26.21252 | 49.29061 | 10833 ft | 339 kts | 59° |
| 2026-05-08 14:19 | 26.22487 | 49.31195 | 10697 ft | 325 kts | 58° |
| 2026-05-08 14:19 | 26.23672 | 49.33275 | 10537 ft | 310 kts | 58° |
| 2026-05-08 14:19 | 26.24806 | 49.35261 | 10098 ft | 299 kts | 58° |
| 2026-05-08 14:20 | 26.25923 | 49.37205 | 9415 ft | 296 kts | 57° |
| 2026-05-08 14:20 | 26.27034 | 49.39123 | 9115 ft | 294 kts | 57° |
| 2026-05-08 14:20 | 26.28151 | 49.41035 | 8866 ft | 294 kts | 56° |
| 2026-05-08 14:20 | 26.29261 | 49.42943 | 8541 ft | 292 kts | 58° |
| 2026-05-08 14:21 | 26.30029 | 49.45028 | 8132 ft | 292 kts | 76° |
| 2026-05-08 14:21 | 26.30109 | 49.47273 | 7704 ft | 297 kts | 94° |
| 2026-05-08 14:21 | 26.29745 | 49.49551 | 7308 ft | 298 kts | 100° |
| 2026-05-08 14:21 | 26.29283 | 49.51802 | 6964 ft | 297 kts | 99° |
| 2026-05-08 14:22 | 26.28805 | 49.54037 | 6681 ft | 297 kts | 101° |
| 2026-05-08 14:22 | 26.28329 | 49.56260 | 6475 ft | 292 kts | 100° |
| 2026-05-08 14:22 | 26.27861 | 49.58455 | 6174 ft | 292 kts | 101° |
| 2026-05-08 14:22 | 26.27393 | 49.60683 | 5701 ft | 299 kts | 100° |
| 2026-05-08 14:23 | 26.26911 | 49.62963 | 5200 ft | 302 kts | 100° |
| 2026-05-08 14:23 | 26.26430 | 49.65188 | 5006 ft | 293 kts | 100° |
| 2026-05-08 14:23 | 26.25956 | 49.67358 | 4868 ft | 283 kts | 100° |
| 2026-05-08 14:23 | 26.25503 | 49.69452 | 4764 ft | 273 kts | 100° |
| 2026-05-08 14:24 | 26.25060 | 49.71466 | 4681 ft | 262 kts | 100° |
| 2026-05-08 14:24 | 26.24634 | 49.73404 | 4596 ft | 251 kts | 96° |
| 2026-05-08 14:24 | 26.24708 | 49.75269 | 4352 ft | 237 kts | 71° |
| 2026-05-08 14:24 | 26.25127 | 49.77051 | 3881 ft | 238 kts | 68° |
| 2026-05-08 14:25 | 26.25595 | 49.78816 | 3373 ft | 238 kts | 68° |
| 2026-05-08 14:25 | 26.26053 | 49.80565 | 3077 ft | 236 kts | 68° |
| 2026-05-08 14:25 | 26.26555 | 49.82261 | 2992 ft | 222 kts | 57° |
| 2026-05-08 14:25 | 26.27595 | 49.83354 | 3006 ft | 201 kts | 19° |
| 2026-05-08 14:26 | 26.28938 | 49.83730 | 2998 ft | 199 kts | 1° |
| 2026-05-08 14:26 | 26.30284 | 49.83750 | 2935 ft | 184 kts | 352° |
| 2026-05-08 14:26 | 26.31481 | 49.83522 | 2754 ft | 167 kts | 343° |
| 2026-05-08 14:26 | 26.32568 | 49.83197 | 2532 ft | 159 kts | 342° |
| 2026-05-08 14:27 | 26.33629 | 49.82870 | 2324 ft | 157 kts | 343° |
| 2026-05-08 14:27 | 26.34661 | 49.82552 | 2113 ft | 155 kts | 342° |
| 2026-05-08 14:27 | 26.35682 | 49.82238 | 1928 ft | 147 kts | 342° |
| 2026-05-08 14:27 | 26.36635 | 49.81941 | 1747 ft | 139 kts | 344° |
| 2026-05-08 14:28 | 26.37571 | 49.81651 | 1575 ft | 140 kts | 344° |
| 2026-05-08 14:28 | 26.38492 | 49.81367 | 1377 ft | 134 kts | 341° |
| 2026-05-08 14:28 | 26.39382 | 49.81089 | 1212 ft | 132 kts | 342° |
| 2026-05-08 14:28 | 26.40261 | 49.80814 | 1055 ft | 131 kts | 343° |
| 2026-05-08 14:29 | 26.40855 | 49.80629 | 944 ft | 131 kts | 343° |
| 2026-05-08 14:29 | 26.41724 | 49.80359 | 797 ft | 131 kts | 342° |
| 2026-05-08 14:29 | 26.42601 | 49.80087 | 650 ft | 130 kts | 341° |
| 2026-05-08 14:29 | 26.43476 | 49.79815 | 476 ft | 131 kts | 342° |
| 2026-05-08 14:30 | 26.44346 | 49.79543 | 315 ft | 129 kts | 343° |
| 2026-05-08 14:30 | 26.45200 | 49.79277 | 155 ft | 127 kts | 345° |
| 2026-05-08 14:30 | 26.45997 | 49.79030 | 92 ft | 100 kts | 344° |
| 2026-05-08 14:30 | 26.46491 | 49.78877 | 92 ft | 57 kts | 344° |
| 2026-05-08 14:31 | 26.46828 | 49.78768 | 93 ft | 46 kts | 340° |
| 2026-05-08 14:31 | 26.47089 | 49.78715 | 94 ft | 32 kts | 6° |
| 2026-05-08 14:31 | 26.47253 | 49.78753 | 92 ft | 19 kts | 14° |
| 2026-05-08 14:32 | 26.47436 | 49.78818 | 91 ft | 9 kts | 43° |
| 2026-05-08 14:32 | 26.47465 | 49.78883 | 92 ft | 8 kts | 71° |
| 2026-05-08 14:32 | 26.47471 | 49.78905 | 94 ft | 8 kts | 73° |
| 2026-05-08 14:32 | 26.47483 | 49.78951 | 90 ft | 10 kts | 74° |
| 2026-05-08 14:33 | 26.47499 | 49.79014 | 91 ft | 11 kts | 75° |
| 2026-05-08 14:33 | 26.47501 | 49.79091 | 93 ft | 9 kts | 119° |
| 2026-05-08 14:33 | 26.47442 | 49.79126 | 93 ft | 11 kts | 161° |
| 2026-05-08 14:33 | 26.47360 | 49.79152 | 90 ft | 13 kts | 165° |
| 2026-05-08 14:34 | 26.47281 | 49.79189 | 93 ft | 13 kts | 153° |
| 2026-05-08 14:34 | 26.47190 | 49.79237 | 90 ft | 16 kts | 155° |
| 2026-05-08 14:34 | 26.47091 | 49.79291 | 92 ft | 14 kts | 153° |
| 2026-05-08 14:34 | 26.47006 | 49.79339 | 94 ft | 12 kts | 153° |
| 2026-05-08 14:35 | 26.46929 | 49.79382 | 94 ft | 12 kts | 154° |
| 2026-05-08 14:35 | 26.46869 | 49.79419 | 92 ft | 7 kts | 133° |
| 2026-05-08 14:35 | 26.46871 | 49.79435 | 94 ft | 2 kts | 74° |
| 2026-05-08 14:35 | 26.46878 | 49.79463 | 92 ft | 5 kts | 75° |
| 2026-05-08 14:36 | 26.46884 | 49.79488 | 93 ft | 0 kts | 75° |
| 2026-05-08 14:36 | 26.46883 | 49.79484 | 93 ft | 0 kts | 75° |
| 2026-05-08 14:37 | 26.46884 | 49.79487 | 93 ft | 0 kts | 75° |